createdAt,value
2022-08-08T00:00:51.434Z,0
2022-08-08T00:05:43.598Z,0
2022-08-08T00:10:41.082Z,0
2022-08-08T00:15:56.238Z,0
2022-08-08T00:21:07.653Z,0
2022-08-08T00:26:21.756Z,0
2022-08-08T00:32:16.044Z,0
2022-08-08T00:36:43.023Z,0
2022-08-08T00:42:08.677Z,0
2022-08-08T00:47:14.043Z,0
2022-08-08T00:52:20.479Z,0
2022-08-08T00:57:34.475Z,0
2022-08-08T01:03:18.204Z,0
2022-08-08T01:07:57.123Z,0
2022-08-08T01:13:09.306Z,0
2022-08-08T01:18:25.656Z,0
2022-08-08T01:24:03.453Z,0
2022-08-08T01:28:47.180Z,0
2022-08-08T01:34:01.004Z,0
2022-08-08T01:39:23.792Z,0
2022-08-08T01:44:23.605Z,0
2022-08-08T01:49:37.003Z,0
2022-08-08T01:55:18.392Z,0
2022-08-08T02:00:01.275Z,0
2022-08-08T02:05:12.846Z,0
2022-08-08T02:10:29.251Z,0
2022-08-08T02:15:38.387Z,0
2022-08-08T02:21:00.459Z,0
2022-08-08T02:26:02.512Z,0
2022-08-08T02:31:19.705Z,0
2022-08-08T02:36:28.518Z,0
2022-08-08T02:41:58.235Z,0
2022-08-08T02:46:51.934Z,0
2022-08-08T02:52:32.430Z,0
2022-08-08T02:57:17.189Z,0
2022-08-08T03:02:30.007Z,0
2022-08-08T03:07:41.495Z,0
2022-08-08T03:12:57.381Z,0
2022-08-08T03:18:06.798Z,0
2022-08-08T03:23:17.935Z,328
2022-08-08T03:28:30.085Z,864
2022-08-08T03:33:54.541Z,1554
2022-08-08T03:38:59.386Z,2214
2022-08-08T03:44:07.134Z,2822
2022-08-08T03:49:55.092Z,3261
2022-08-08T03:54:41.912Z,3654
2022-08-08T03:59:57.208Z,3960
2022-08-08T04:04:56.444Z,4294
2022-08-08T04:10:08.553Z,4554
2022-08-08T04:15:22.088Z,4816
2022-08-08T04:20:33.340Z,5039
2022-08-08T04:25:45.638Z,5202
2022-08-08T04:30:58.066Z,5204
2022-08-08T04:36:10.466Z,5177
2022-08-08T04:41:22.809Z,5223
2022-08-08T04:46:35.121Z,5186
2022-08-08T04:51:55.483Z,5161
2022-08-08T04:56:59.984Z,5087
2022-08-08T05:02:13.541Z,5066
2022-08-08T05:07:24.638Z,5124
2022-08-08T05:12:43.188Z,5142
2022-08-08T05:17:54.064Z,5161
2022-08-08T05:23:02.069Z,5179
2022-08-08T05:28:14.885Z,5204
2022-08-08T05:33:26.524Z,5124
2022-08-08T05:38:38.971Z,5181
2022-08-08T05:44:03.126Z,5230
2022-08-08T05:49:06.447Z,5175
2022-08-08T05:54:25.077Z,5165
2022-08-08T05:59:52.283Z,5158
2022-08-08T06:04:41.092Z,5200
2022-08-08T06:10:00.778Z,5202
2022-08-08T06:15:06.091Z,5161
2022-08-08T06:20:18.303Z,5234
2022-08-08T06:25:33.501Z,5126
2022-08-08T06:30:42.956Z,5124
2022-08-08T06:36:04.066Z,5140
2022-08-08T06:41:07.889Z,5172
2022-08-08T06:46:23.680Z,5156
2022-08-08T06:51:47.265Z,5186
2022-08-08T06:56:47.011Z,5209
2022-08-08T07:02:18.483Z,5239
2022-08-08T07:12:25.323Z,5163
2022-08-08T07:22:49.971Z,5158
2022-08-08T07:28:07.895Z,5234
2022-08-08T07:38:26.821Z,5223
2022-08-08T07:43:39.356Z,5165
2022-08-08T07:48:51.669Z,5085
2022-08-08T07:54:04.187Z,5195
2022-08-08T07:59:19.296Z,5227
2022-08-08T08:04:35.968Z,5221
2022-08-08T08:09:46.788Z,5112
2022-08-08T08:14:59.056Z,5149
2022-08-08T08:20:11.224Z,5225
2022-08-08T08:25:41.076Z,5158
2022-08-08T08:30:35.916Z,5225
2022-08-08T08:36:18.143Z,5188
2022-08-08T08:41:00.735Z,5172
2022-08-08T08:46:15.198Z,5078
2022-08-08T08:51:25.386Z,5225
2022-08-08T08:56:37.725Z,5115
2022-08-08T09:01:50.249Z,5230
2022-08-08T09:07:02.440Z,5237
2022-08-08T09:12:14.913Z,5154
2022-08-08T09:17:31.912Z,5264
2022-08-08T09:22:39.366Z,5262
2022-08-08T09:27:57.792Z,5158
2022-08-08T09:33:13.287Z,5158
2022-08-08T09:38:17.907Z,5264
2022-08-08T09:43:40.507Z,5168
2022-08-08T09:48:42.758Z,5168
2022-08-08T09:54:01.428Z,5172
2022-08-08T09:59:20.330Z,5154
2022-08-08T10:04:22.328Z,5223
2022-08-08T10:09:33.097Z,5271
2022-08-08T10:14:45.653Z,5244
2022-08-08T10:19:58.659Z,5216
2022-08-08T10:25:15.615Z,5193
2022-08-08T10:30:56.883Z,5250
2022-08-08T10:36:07.806Z,5200
2022-08-08T10:40:48.059Z,5257
2022-08-08T10:46:00.558Z,5283
2022-08-08T10:51:13.115Z,5232
2022-08-08T10:56:27.194Z,5283
2022-08-08T11:01:37.777Z,5285
2022-08-08T11:06:59.014Z,5290
2022-08-08T11:12:13.701Z,5285
2022-08-08T11:17:59.178Z,5294
2022-08-08T11:22:36.096Z,5248
2022-08-08T11:33:04.932Z,5273
2022-08-08T11:38:34.837Z,5290
2022-08-08T11:43:25.907Z,5296
2022-08-08T11:48:38.141Z,5301
2022-08-08T11:53:55.378Z,5315
2022-08-08T11:59:02.906Z,5283
2022-08-08T12:04:16.122Z,5273
2022-08-08T12:09:28.315Z,5299
2022-08-08T12:19:53.974Z,5301
2022-08-08T12:25:05.180Z,5308
2022-08-08T12:30:18.677Z,5264
2022-08-08T12:35:30.166Z,5303
2022-08-08T12:45:59.108Z,5317
2022-08-08T12:51:07.751Z,5257
2022-08-08T13:01:34.726Z,5299
2022-08-08T13:06:44.288Z,5287
2022-08-08T13:12:19.507Z,5329
2022-08-08T13:17:09.157Z,5306
2022-08-08T13:22:24.477Z,5306
2022-08-08T13:27:35.741Z,5333
2022-08-08T13:32:46.221Z,5336
2022-08-08T13:38:05.320Z,5306
2022-08-08T13:43:10.778Z,5322
2022-08-08T13:48:25.492Z,5301
2022-08-08T13:59:10.454Z,5296
2022-08-08T14:04:23.036Z,5296
2022-08-08T14:10:02.696Z,5301
2022-08-08T14:14:47.066Z,5296
2022-08-08T14:20:06.219Z,5276
2022-08-08T14:25:15.180Z,5285
2022-08-08T14:30:24.116Z,5310
2022-08-08T14:35:36.536Z,5280
2022-08-08T14:40:48.426Z,5292
2022-08-08T14:46:02.578Z,5280
2022-08-08T14:51:17.778Z,5253
2022-08-08T14:56:26.064Z,5319
2022-08-08T15:01:41.098Z,5333
2022-08-08T15:06:51.263Z,5319
2022-08-08T15:12:03.497Z,5303
2022-08-08T15:17:16.036Z,5324
2022-08-08T15:22:28.349Z,5345
2022-08-08T15:27:58.202Z,5315
2022-08-08T15:32:52.653Z,5336
2022-08-08T15:43:18.921Z,5338
2022-08-08T15:48:29.526Z,5342
2022-08-08T15:53:48.931Z,5345
2022-08-08T15:58:54.291Z,5276
2022-08-08T16:04:06.515Z,5347
2022-08-08T16:13:06.550Z,5303
2022-08-08T16:14:32.472Z,5308
2022-08-08T16:19:56.967Z,5336
2022-08-08T16:24:55.757Z,5278
2022-08-08T16:30:14.026Z,5317
2022-08-08T16:35:22.901Z,5280
2022-08-08T16:40:32.630Z,5324
2022-08-08T16:46:38.094Z,5340
2022-08-08T16:50:57.829Z,5345
2022-08-08T16:56:14.208Z,5365
2022-08-08T17:01:22.565Z,5361
2022-08-08T17:06:35.995Z,5359
2022-08-08T17:11:48.371Z,5347
2022-08-08T17:17:01.511Z,5345
2022-08-08T17:22:12.303Z,5306
2022-08-08T17:27:28.987Z,5347
2022-08-08T17:32:58.248Z,5349
2022-08-08T17:37:51.823Z,5342
2022-08-08T17:43:01.353Z,5244
2022-08-08T17:48:14.950Z,5313
2022-08-08T17:53:31.290Z,5324
2022-08-08T17:58:38.233Z,5336
2022-08-08T18:03:50.526Z,5333
2022-08-08T18:09:03.254Z,5315
2022-08-08T18:14:19.010Z,5329
2022-08-08T18:19:27.209Z,5322
2022-08-08T18:24:39.272Z,5303
2022-08-08T18:29:51.412Z,5313
2022-08-08T18:35:03.680Z,4862
2022-08-08T18:40:15.824Z,3686
2022-08-08T18:45:45.461Z,2870
2022-08-08T18:50:50.263Z,2109
2022-08-08T18:55:52.543Z,1458
2022-08-08T19:01:04.546Z,876
2022-08-08T19:06:16.678Z,397
2022-08-08T19:11:28.742Z,23
2022-08-08T19:16:40.820Z,0
2022-08-08T19:21:53.375Z,0
2022-08-08T19:27:05.417Z,0
2022-08-08T19:32:19.819Z,0
2022-08-08T19:37:42.520Z,0
2022-08-08T19:42:42.054Z,0
2022-08-08T19:47:57.073Z,0
2022-08-08T19:53:22.126Z,0
2022-08-08T19:58:21.804Z,0
2022-08-08T20:04:00.588Z,0
2022-08-08T20:08:48.439Z,0
2022-08-08T20:14:13.512Z,0
2022-08-08T20:19:10.619Z,0
2022-08-08T20:24:22.801Z,0
2022-08-08T20:29:45.953Z,0
2022-08-08T20:34:47.669Z,0
2022-08-08T20:39:59.716Z,0
2022-08-08T20:45:12.209Z,0
2022-08-08T20:50:24.844Z,0
2022-08-08T20:55:42.280Z,0
2022-08-08T21:00:49.062Z,0
2022-08-08T21:06:01.175Z,0
2022-08-08T21:11:13.511Z,0
2022-08-08T21:16:28.747Z,0
2022-08-08T21:21:38.637Z,0
2022-08-08T21:26:51.118Z,0
2022-08-08T21:32:02.729Z,0
2022-08-08T21:37:16.316Z,0
2022-08-08T21:42:27.200Z,0
2022-08-08T21:48:03.177Z,0
2022-08-08T21:54:19.193Z,0
2022-08-08T21:58:05.955Z,0
2022-08-08T22:03:17.823Z,0
2022-08-08T22:13:47.886Z,0
2022-08-08T22:18:53.190Z,0
2022-08-08T22:29:57.502Z,0
2022-08-08T22:34:30.069Z,0
2022-08-08T22:39:46.438Z,0
2022-08-08T22:44:54.596Z,0
2022-08-08T22:50:09.613Z,0
2022-08-08T22:55:19.239Z,0
2022-08-08T23:00:31.571Z,0
2022-08-08T23:05:49.545Z,0
2022-08-08T23:10:59.221Z,0
2022-08-08T23:16:37.524Z,0
2022-08-08T23:21:23.656Z,0
2022-08-08T23:26:35.973Z,0
2022-08-08T23:31:48.363Z,0
2022-08-08T23:37:02.567Z,0
2022-08-08T23:42:13.533Z,0
2022-08-08T23:48:59.439Z,0
2022-08-08T23:52:38.334Z,0
2022-08-08T23:57:52.011Z,0
